• Join FlightAware (Why Join?)
  • Login
  • US Flag 
11:33AM EDT


 

Airport Tracker/Info


-or-


 

Live Flight TrackerFlight Track Log ✈ JBU1781 ✈ 11-May-2013 ✈ KMCO - MYNN / NAS

Flight Track Log - Related Links

Times and Time Zones

All times are in EDT time to prevent confusion due to time zone crossing. See the JBU1781 flight status page for this flight to view local times or setup timezone preferences in your user account.

Time Position Orientation Groundspeed Altitude Reporting Facility
EDT Latitude Longitude Course Direction KTS MPH feet Rate Location/Type
02:16PM 28.4000 -81.3000 139° Southeast 163 188 800  Level Orlando TRACON
02:17PM 28.3667 -81.2667 139° Southeast 187 215 1,900 1,980 Climbing Orlando TRACON
02:18PM 28.3500 -81.2000 106° East 243 280 4,600 2,460 Climbing Orlando TRACON
02:19PM 28.1356 -80.9617 139° Southeast  Level Estimated
02:19PM 28.3167 -81.1167 114° Southeast 279 321 6,900  Level Orlando TRACON
02:20PM 28.0620 -80.8752 139° Southeast  Level Estimated
02:20PM 28.2983 -81.0347 104° East 308 354 10,100  Level Miami Center
02:21PM 27.9883 -80.7888 139° Southeast  Level Estimated
02:21PM 28.2678 -80.9394 110° East 313 360 11,900  Level Miami Center
02:22PM 28.2331 -80.8367 111° Southeast 334 384 13,900 2,220 Climbing Miami Center
02:23PM 28.1606 -80.7400 130° Southeast 378 435 16,400 2,220 Climbing Miami Center
02:24PM 28.0903 -80.6411 129° Southeast 401 461 18,400 1,980 Climbing Miami Center
02:25PM 28.0197 -80.5400 128° Southeast 411 473 20,400 1,860 Climbing Miami Center
02:26PM 27.9347 -80.4292 131° Southeast 416 479 22,200 1,260 Climbing Miami Center
02:27PM 27.8539 -80.3208 130° Southeast 434 499 23,000 360 Climbing Miami Center
02:28PM 27.7772 -80.2178 130° Southeast 440 506 23,000  Level Miami Center
02:29PM 27.6981 -80.1122 130° Southeast 440 506 23,000  Level Miami Center
02:30PM 27.6169 -80.0044 130° Southeast 440 506 23,000  Level Miami Center
02:31PM 27.5397 -79.9017 130° Southeast 440 506 23,000  Level Miami Center
02:32PM 27.4731 -79.8061 128° Southeast 440 506 23,000  Level Miami Center
02:33PM 27.3936 -79.7011 130° Southeast 440 506 23,000  Level Miami Center
02:34PM 27.3061 -79.5844 130° Southeast 440 506 23,000  Level Miami Center
02:35PM 27.2244 -79.4775 131° Southeast 440 506 23,000  Level Miami Center
02:36PM 27.1511 -79.3756 129° Southeast 435 501 23,000  Level Miami Center
02:37PM 27.0775 -79.2806 131° Southeast 443 510 23,000  Level Miami Center
02:38PM 26.9978 -79.1786 131° Southeast 443 510 23,000  Level Miami Center
02:39PM 26.9178 -79.0744 131° Southeast 443 510 23,000  Level Miami Center
02:40PM 26.8381 -78.9706 131° Southeast 438 504 23,000  Level Miami Center
02:41PM 26.7561 -78.8619 130° Southeast 438 504 23,000  Level Miami Center
02:42PM 26.6781 -78.7586 130° Southeast 432 497 23,000  Level Miami Center
02:43PM 26.5894 -78.6456 131° Southeast 431 496 23,000  Level Miami Center
02:44PM 26.5072 -78.5492 134° Southeast 426 490 23,000  Level Miami Center
02:45PM 26.4289 -78.4389 128° Southeast 436 502 23,000  Level Miami Center
02:46PM 26.3486 -78.3336 130° Southeast 436 502 23,000  Level Miami Center
02:47PM 26.2681 -78.2306 131° Southeast 436 502 23,000  Level Miami Center
02:48PM 26.1875 -78.1300 132° Southeast 436 502 23,000 -420 Level Miami Center
02:49PM 26.1172 -78.0414 131° Southeast 436 502 22,200 -900 Descending Miami Center
02:50PM 26.0386 -77.9433 132° Southeast 431 496 21,200 -1,200 Descending Miami Center
02:51PM 25.9642 -77.8456 130° Southeast 424 488 19,900 -1,740 Descending Miami Center
02:52PM 25.8894 -77.7481 130° Southeast 413 475 17,800 -2,100 Descending Miami Center
02:53PM 25.7936 -77.7011 156° South 384 442 15,700 -1,860 Descending Miami Center
02:54PM 25.6956 -77.6936 176° South 368 423 14,100 -1,800 Descending Miami Center
02:55PM 25.6036 -77.6975 182° South 348 400 12,200 -1,920 Descending Miami Center